REU109 FMEE-FIMP
Flight info
| Callsign | REU109 |
|---|---|
| Flight time | 0h 29m |
| Altitude | 19000 |
| Route | EPTEK2J EPTEK EPTEK2F |
| Aircraft | B77W/H-SDE1E2E3FGHIJ2J3J4J5M1RWXY/LB1D1 |
Departure
| Time | 2026-05-03 23:34 |
|---|---|
| Airport | Roland Garros Airport (FMEE) |
Arrival
| Time | 2026-05-04 00:03 |
|---|---|
| Airport | Sir Seewoosagur Ramgoolam International Airport (FIMP) |
| Time | Latitude | Longitude | Altitude | Speed | Heading |
|---|---|---|---|---|---|
| 2026-05-03 23:23 | -20.89120 | 55.51520 | 115 ft | 0 kts | 298° |
| 2026-05-03 23:25 | -20.89114 | 55.51506 | 114 ft | 4 kts | 296° |
| 2026-05-03 23:26 | -20.89099 | 55.51474 | 114 ft | 5 kts | 296° |
| 2026-05-03 23:26 | -20.89082 | 55.51437 | 113 ft | 6 kts | 296° |
| 2026-05-03 23:26 | -20.89060 | 55.51389 | 112 ft | 8 kts | 296° |
| 2026-05-03 23:26 | -20.89030 | 55.51324 | 110 ft | 10 kts | 296° |
| 2026-05-03 23:27 | -20.88998 | 55.51257 | 108 ft | 8 kts | 296° |
| 2026-05-03 23:27 | -20.88979 | 55.51218 | 107 ft | 5 kts | 302° |
| 2026-05-03 23:27 | -20.88948 | 55.51194 | 105 ft | 6 kts | 341° |
| 2026-05-03 23:27 | -20.88887 | 55.51170 | 102 ft | 11 kts | 339° |
| 2026-05-03 23:28 | -20.88808 | 55.51141 | 96 ft | 9 kts | 342° |
| 2026-05-03 23:28 | -20.88747 | 55.51110 | 94 ft | 8 kts | 316° |
| 2026-05-03 23:28 | -20.88718 | 55.51055 | 93 ft | 9 kts | 289° |
| 2026-05-03 23:28 | -20.88702 | 55.50987 | 92 ft | 9 kts | 282° |
| 2026-05-03 23:29 | -20.88687 | 55.50913 | 92 ft | 10 kts | 282° |
| 2026-05-03 23:29 | -20.88671 | 55.50836 | 91 ft | 10 kts | 282° |
| 2026-05-03 23:29 | -20.88656 | 55.50756 | 91 ft | 11 kts | 281° |
| 2026-05-03 23:29 | -20.88639 | 55.50674 | 90 ft | 10 kts | 282° |
| 2026-05-03 23:30 | -20.88622 | 55.50593 | 88 ft | 11 kts | 283° |
| 2026-05-03 23:30 | -20.88606 | 55.50545 | 87 ft | 5 kts | 302° |
| 2026-05-03 23:30 | -20.88584 | 55.50516 | 86 ft | 2 kts | 304° |
| 2026-05-03 23:30 | -20.88580 | 55.50502 | 85 ft | 3 kts | 269° |
| 2026-05-03 23:31 | -20.88589 | 55.50485 | 85 ft | 3 kts | 218° |
| 2026-05-03 23:31 | -20.88600 | 55.50481 | 85 ft | 1 kts | 182° |
| 2026-05-03 23:31 | -20.88608 | 55.50483 | 85 ft | 1 kts | 158° |
| 2026-05-03 23:31 | -20.88616 | 55.50493 | 85 ft | 3 kts | 118° |
| 2026-05-03 23:32 | -20.88619 | 55.50502 | 86 ft | 0 kts | 93° |
| 2026-05-03 23:32 | -20.88619 | 55.50503 | 86 ft | 0 kts | 93° |
| 2026-05-03 23:32 | -20.88618 | 55.50518 | 86 ft | 3 kts | 85° |
| 2026-05-03 23:32 | -20.88616 | 55.50557 | 87 ft | 5 kts | 96° |
| 2026-05-03 23:33 | -20.88627 | 55.50620 | 89 ft | 14 kts | 101° |
| 2026-05-03 23:33 | -20.88694 | 55.50944 | 92 ft | 81 kts | 102° |
| 2026-05-03 23:33 | -20.88866 | 55.51794 | 95 ft | 148 kts | 102° |
| 2026-05-03 23:33 | -20.89108 | 55.53031 | 323 ft | 183 kts | 104° |
| 2026-05-03 23:34 | -20.89305 | 55.54364 | 1136 ft | 187 kts | 88° |
| 2026-05-03 23:34 | -20.88952 | 55.55664 | 1902 ft | 191 kts | 63° |
| 2026-05-03 23:34 | -20.88126 | 55.56790 | 2576 ft | 197 kts | 52° |
| 2026-05-03 23:34 | -20.87206 | 55.57940 | 3091 ft | 212 kts | 52° |
| 2026-05-03 23:35 | -20.86212 | 55.59185 | 3586 ft | 229 kts | 52° |
| 2026-05-03 23:35 | -20.85147 | 55.60518 | 4071 ft | 247 kts | 52° |
| 2026-05-03 23:35 | -20.83989 | 55.61968 | 4563 ft | 265 kts | 52° |
| 2026-05-03 23:35 | -20.82770 | 55.63490 | 5212 ft | 276 kts | 52° |
| 2026-05-03 23:36 | -20.81522 | 55.65048 | 5940 ft | 283 kts | 52° |
| 2026-05-03 23:36 | -20.80223 | 55.66668 | 6696 ft | 289 kts | 51° |
| 2026-05-03 23:36 | -20.78909 | 55.68306 | 7467 ft | 293 kts | 51° |
| 2026-05-03 23:36 | -20.77588 | 55.69952 | 8278 ft | 295 kts | 51° |
| 2026-05-03 23:37 | -20.76260 | 55.71605 | 8998 ft | 300 kts | 50° |
| 2026-05-03 23:37 | -20.74894 | 55.73306 | 9708 ft | 305 kts | 50° |
| 2026-05-03 23:37 | -20.73514 | 55.75023 | 10380 ft | 311 kts | 50° |
| 2026-05-03 23:37 | -20.72062 | 55.76829 | 10770 ft | 330 kts | 50° |
| 2026-05-03 23:38 | -20.70523 | 55.78743 | 11192 ft | 347 kts | 50° |
| 2026-05-03 23:38 | -20.68917 | 55.80739 | 11650 ft | 364 kts | 50° |
| 2026-05-03 23:38 | -20.67226 | 55.82840 | 12123 ft | 380 kts | 50° |
| 2026-05-03 23:38 | -20.65459 | 55.85034 | 12671 ft | 394 kts | 50° |
| 2026-05-03 23:39 | -20.63668 | 55.87256 | 13476 ft | 400 kts | 50° |
| 2026-05-03 23:39 | -20.61854 | 55.89505 | 14370 ft | 404 kts | 49° |
| 2026-05-03 23:39 | -20.59944 | 55.91715 | 15297 ft | 408 kts | 47° |
| 2026-05-03 23:39 | -20.57998 | 55.93911 | 16245 ft | 412 kts | 47° |
| 2026-05-03 23:40 | -20.56028 | 55.96134 | 17154 ft | 417 kts | 47° |
| 2026-05-03 23:40 | -20.54042 | 55.98380 | 18028 ft | 423 kts | 47° |
| 2026-05-03 23:40 | -20.52018 | 56.00673 | 18770 ft | 426 kts | 47° |
| 2026-05-03 23:40 | -20.49985 | 56.02977 | 19020 ft | 427 kts | 47° |
| 2026-05-03 23:41 | -20.47937 | 56.05297 | 19042 ft | 425 kts | 47° |
| 2026-05-03 23:41 | -20.45932 | 56.07603 | 19041 ft | 423 kts | 51° |
| 2026-05-03 23:41 | -20.44243 | 56.10151 | 19043 ft | 423 kts | 62° |
| 2026-05-03 23:41 | -20.43007 | 56.12994 | 19041 ft | 421 kts | 72° |
| 2026-05-03 23:42 | -20.42286 | 56.15964 | 19039 ft | 418 kts | 83° |
| 2026-05-03 23:42 | -20.41988 | 56.19072 | 19043 ft | 416 kts | 88° |
| 2026-05-03 23:42 | -20.41800 | 56.22102 | 19042 ft | 416 kts | 89° |
| 2026-05-03 23:42 | -20.41626 | 56.25174 | 19044 ft | 416 kts | 89° |
| 2026-05-03 23:43 | -20.41461 | 56.28254 | 19044 ft | 416 kts | 89° |
| 2026-05-03 23:43 | -20.41302 | 56.31323 | 19043 ft | 416 kts | 89° |
| 2026-05-03 23:43 | -20.41147 | 56.34396 | 19042 ft | 415 kts | 89° |
| 2026-05-03 23:43 | -20.40995 | 56.37461 | 19042 ft | 415 kts | 89° |
| 2026-05-03 23:44 | -20.40844 | 56.40545 | 19042 ft | 416 kts | 89° |
| 2026-05-03 23:44 | -20.40694 | 56.43623 | 19041 ft | 416 kts | 89° |
| 2026-05-03 23:44 | -20.40545 | 56.46696 | 19041 ft | 416 kts | 89° |
| 2026-05-03 23:44 | -20.40397 | 56.49762 | 19040 ft | 417 kts | 89° |
| 2026-05-03 23:45 | -20.40246 | 56.52868 | 19039 ft | 417 kts | 89° |
| 2026-05-03 23:45 | -20.40098 | 56.55932 | 19040 ft | 417 kts | 89° |
| 2026-05-03 23:45 | -20.39948 | 56.59031 | 19040 ft | 418 kts | 89° |
| 2026-05-03 23:45 | -20.39797 | 56.62117 | 19039 ft | 418 kts | 89° |
| 2026-05-03 23:46 | -20.39647 | 56.65192 | 19040 ft | 417 kts | 89° |
| 2026-05-03 23:46 | -20.39497 | 56.68256 | 19040 ft | 417 kts | 89° |
| 2026-05-03 23:46 | -20.39347 | 56.71326 | 19038 ft | 418 kts | 89° |
| 2026-05-03 23:46 | -20.39195 | 56.74417 | 19038 ft | 417 kts | 89° |
| 2026-05-03 23:47 | -20.39043 | 56.77499 | 19037 ft | 417 kts | 89° |
| 2026-05-03 23:47 | -20.38890 | 56.80583 | 19037 ft | 418 kts | 89° |
| 2026-05-03 23:47 | -20.38736 | 56.83676 | 19037 ft | 417 kts | 89° |
| 2026-05-03 23:47 | -20.38583 | 56.86739 | 19037 ft | 417 kts | 89° |
| 2026-05-03 23:48 | -20.38428 | 56.89827 | 19036 ft | 417 kts | 89° |
| 2026-05-03 23:48 | -20.38274 | 56.92891 | 19034 ft | 417 kts | 89° |
| 2026-05-03 23:48 | -20.38119 | 56.95956 | 18800 ft | 408 kts | 89° |
| 2026-05-03 23:48 | -20.37967 | 56.98947 | 18309 ft | 405 kts | 89° |
| 2026-05-03 23:49 | -20.37816 | 57.01917 | 17774 ft | 403 kts | 89° |
| 2026-05-03 23:49 | -20.37664 | 57.04901 | 17243 ft | 402 kts | 89° |
| 2026-05-03 23:49 | -20.37513 | 57.07861 | 16723 ft | 400 kts | 89° |
| 2026-05-03 23:49 | -20.37363 | 57.10796 | 16193 ft | 398 kts | 89° |
| 2026-05-03 23:50 | -20.37212 | 57.13737 | 15656 ft | 397 kts | 89° |
| 2026-05-03 23:50 | -20.37112 | 57.15668 | 15304 ft | 396 kts | 89° |
| 2026-05-03 23:50 | -20.36910 | 57.19569 | 14591 ft | 394 kts | 89° |
| 2026-05-03 23:50 | -20.36759 | 57.22478 | 14056 ft | 392 kts | 89° |
| 2026-05-03 23:51 | -20.36610 | 57.25343 | 13528 ft | 391 kts | 89° |
| 2026-05-03 23:51 | -20.36459 | 57.28237 | 12989 ft | 390 kts | 89° |
| 2026-05-03 23:51 | -20.36345 | 57.31103 | 12453 ft | 387 kts | 93° |
| 2026-05-03 23:51 | -20.36639 | 57.33921 | 11911 ft | 383 kts | 104° |
| 2026-05-03 23:52 | -20.37441 | 57.36590 | 11372 ft | 378 kts | 116° |
| 2026-05-03 23:52 | -20.38574 | 57.39090 | 10855 ft | 375 kts | 119° |
| 2026-05-03 23:52 | -20.39728 | 57.41530 | 10683 ft | 361 kts | 119° |
| 2026-05-03 23:52 | -20.40838 | 57.43869 | 10593 ft | 347 kts | 119° |
| 2026-05-03 23:53 | -20.41908 | 57.46121 | 10480 ft | 334 kts | 119° |
| 2026-05-03 23:53 | -20.42949 | 57.48309 | 10321 ft | 322 kts | 119° |
| 2026-05-03 23:53 | -20.43940 | 57.50387 | 10176 ft | 309 kts | 120° |
| 2026-05-03 23:53 | -20.44898 | 57.52396 | 9954 ft | 300 kts | 120° |
| 2026-05-03 23:54 | -20.45832 | 57.54355 | 9567 ft | 297 kts | 120° |
| 2026-05-03 23:54 | -20.46764 | 57.56307 | 9173 ft | 294 kts | 119° |
| 2026-05-03 23:54 | -20.47682 | 57.58234 | 8779 ft | 291 kts | 119° |
| 2026-05-03 23:54 | -20.48596 | 57.60154 | 8402 ft | 284 kts | 119° |
| 2026-05-03 23:55 | -20.49479 | 57.62010 | 8054 ft | 279 kts | 119° |
| 2026-05-03 23:55 | -20.50343 | 57.63824 | 7698 ft | 273 kts | 119° |
| 2026-05-03 23:55 | -20.51197 | 57.65620 | 7419 ft | 269 kts | 119° |
| 2026-05-03 23:55 | -20.52043 | 57.67397 | 7093 ft | 268 kts | 119° |
| 2026-05-03 23:56 | -20.52880 | 57.69159 | 6784 ft | 266 kts | 119° |
| 2026-05-03 23:56 | -20.53713 | 57.70911 | 6503 ft | 262 kts | 119° |
| 2026-05-03 23:56 | -20.54524 | 57.72619 | 6233 ft | 256 kts | 119° |
| 2026-05-03 23:56 | -20.55316 | 57.74285 | 5952 ft | 250 kts | 118° |
| 2026-05-03 23:57 | -20.56091 | 57.75919 | 5670 ft | 243 kts | 118° |
| 2026-05-03 23:57 | -20.56844 | 57.77505 | 5405 ft | 236 kts | 118° |
| 2026-05-03 23:57 | -20.57579 | 57.79054 | 5150 ft | 230 kts | 118° |
| 2026-05-03 23:57 | -20.58040 | 57.80652 | 4887 ft | 227 kts | 96° |
| 2026-05-03 23:58 | -20.57833 | 57.82309 | 4630 ft | 224 kts | 71° |
| 2026-05-03 23:58 | -20.57017 | 57.83690 | 4382 ft | 222 kts | 47° |
| 2026-05-03 23:58 | -20.55764 | 57.84650 | 4155 ft | 219 kts | 33° |
| 2026-05-03 23:58 | -20.54409 | 57.85384 | 3908 ft | 220 kts | 19° |
| 2026-05-03 23:59 | -20.52905 | 57.85533 | 3657 ft | 219 kts | 353° |
| 2026-05-03 23:59 | -20.51510 | 57.84996 | 3543 ft | 209 kts | 328° |
| 2026-05-03 23:59 | -20.50446 | 57.83934 | 3163 ft | 212 kts | 304° |
| 2026-05-03 23:59 | -20.49779 | 57.82556 | 2795 ft | 209 kts | 294° |
| 2026-05-04 00:00 | -20.49179 | 57.81195 | 2486 ft | 196 kts | 295° |
| 2026-05-04 00:00 | -20.48589 | 57.79933 | 2211 ft | 187 kts | 296° |
| 2026-05-04 00:00 | -20.48005 | 57.78716 | 1944 ft | 177 kts | 296° |
| 2026-05-04 00:00 | -20.47469 | 57.77601 | 1687 ft | 164 kts | 296° |
| 2026-05-04 00:01 | -20.46960 | 57.76540 | 1489 ft | 158 kts | 296° |
| 2026-05-04 00:01 | -20.46460 | 57.75499 | 1355 ft | 156 kts | 295° |
| 2026-05-04 00:01 | -20.45987 | 57.74470 | 1173 ft | 153 kts | 295° |
| 2026-05-04 00:01 | -20.45503 | 57.73463 | 952 ft | 152 kts | 297° |
| 2026-05-04 00:02 | -20.45013 | 57.72482 | 726 ft | 150 kts | 297° |
| 2026-05-04 00:02 | -20.44535 | 57.71494 | 505 ft | 148 kts | 296° |
| 2026-05-04 00:02 | -20.44069 | 57.70526 | 302 ft | 146 kts | 297° |
| 2026-05-04 00:02 | -20.43609 | 57.69570 | 126 ft | 143 kts | 297° |
| 2026-05-04 00:03 | -20.43204 | 57.68728 | 165 ft | 108 kts | 297° |
| 2026-05-04 00:03 | -20.42924 | 57.68149 | 183 ft | 66 kts | 297° |
| 2026-05-04 00:03 | -20.42765 | 57.67818 | 195 ft | 38 kts | 297° |
| 2026-05-04 00:03 | -20.42678 | 57.67639 | 202 ft | 20 kts | 297° |
| 2026-05-04 00:04 | -20.42630 | 57.67539 | 204 ft | 6 kts | 296° |
| 2026-05-04 00:04 | -20.42624 | 57.67497 | 205 ft | 4 kts | 255° |
| 2026-05-04 00:04 | -20.42646 | 57.67474 | 205 ft | 4 kts | 198° |